Time;durP1;ratioP1;P1;durP2;ratioP2;P2;SDS_P1;SDS_P2;PMS_P1;PMS_P2;Temp;Humidity;BMP_temperature;BMP_pressure;BME280_temperature;BME280_humidity;BME280_pressure;Samples;Min_cycle;Max_cycle;Signal;HPM_P1;HPM_P2
2020/12/25 00:03:42;;;;;;;4.70;1.67;;;;;;;7.37;64.01;97438.13;8341645;28;20197;-80
2020/12/25 00:07:45;;;;;;;1.80;1.60;;;;;;;7.53;63.60;97448.66;8341512;28;20211;-79
2020/12/25 00:11:47;;;;;;;1.90;1.60;;;;;;;7.50;63.28;97452.19;8339124;28;20331;-79
2020/12/25 00:15:50;;;;;;;1.50;1.40;;;;;;;7.64;62.97;97465.34;8339613;28;20556;-79
2020/12/25 00:19:52;;;;;;;3.13;1.70;;;;;;;7.55;63.25;97454.56;8337802;28;20219;-79
2020/12/25 00:23:53;;;;;;;2.00;1.80;;;;;;;7.43;63.41;97464.47;8335394;28;20212;-78
2020/12/25 00:27:55;;;;;;;2.50;2.10;;;;;;;7.44;63.80;97473.03;8332863;28;20235;-78
2020/12/25 00:31:58;;;;;;;1.80;1.70;;;;;;;7.49;63.33;97478.84;8342213;28;20215;-80
2020/12/25 00:35:59;;;;;;;5.90;1.90;;;;;;;7.26;64.43;97471.19;8347389;28;20196;-81
2020/12/25 00:40:01;;;;;;;2.87;1.93;;;;;;;7.03;64.31;97452.31;8347195;28;20641;-81
2020/12/25 00:44:03;;;;;;;2.37;2.10;;;;;;;7.17;63.80;97474.94;8346236;28;20200;-80
2020/12/25 00:48:08;;;;;;;1.97;1.80;;;;;;;7.34;63.70;97480.28;8345786;28;20213;-79
2020/12/25 00:52:10;;;;;;;2.10;1.90;;;;;;;7.27;63.53;97475.44;8345864;28;20200;-79
2020/12/25 00:56:12;;;;;;;2.87;1.97;;;;;;;7.14;63.51;97483.66;8346517;28;20232;-80
2020/12/25 01:00:14;;;;;;;2.20;2.00;;;;;;;7.39;62.79;97491.25;8345658;28;20200;-79
2020/12/25 01:04:17;;;;;;;3.10;2.00;;;;;;;7.21;62.44;97503.09;8347292;28;20205;-79
2020/12/25 01:08:18;;;;;;;2.30;2.10;;;;;;;7.28;63.20;97505.47;8347949;28;20219;-79
2020/12/25 01:12:20;;;;;;;2.13;1.93;;;;;;;7.31;63.24;97513.91;8348209;28;20668;-79
2020/12/25 01:16:22;;;;;;;2.30;2.10;;;;;;;7.36;62.98;97530.00;8347963;28;20235;-79
2020/12/25 01:20:24;;;;;;;4.13;2.50;;;;;;;7.10;63.47;97537.88;8347661;28;20200;-79
2020/12/25 01:24:27;;;;;;;3.17;2.30;;;;;;;7.13;63.41;97538.59;8346816;28;20200;-79
2020/12/25 01:28:29;;;;;;;2.93;2.23;;;;;;;7.18;62.94;97546.19;8355103;28;20235;-80
2020/12/25 01:32:34;;;;;;;5.97;2.20;;;;;;;7.00;63.40;97555.41;8364079;28;20196;-80
2020/12/25 01:36:37;;;;;;;2.40;2.20;;;;;;;7.08;62.48;97560.28;8343591;28;20224;-80
2020/12/25 01:40:38;;;;;;;2.53;2.10;;;;;;;7.12;62.77;97557.53;8342354;28;20207;-80
2020/12/25 01:44:40;;;;;;;3.07;2.70;;;;;;;6.93;63.20;97582.25;8343568;28;20200;-80
2020/12/25 01:48:42;;;;;;;3.20;2.20;;;;;;;7.02;63.33;97580.19;8345094;28;20563;-80
2020/12/25 01:52:48;;;;;;;4.17;2.43;;;;;;;7.05;62.75;97577.50;8345323;28;20291;-80
2020/12/25 01:56:49;;;;;;;4.87;2.70;;;;;;;6.88;63.61;97587.59;8345850;28;20231;-80
2020/12/25 02:00:52;;;;;;;3.67;2.50;;;;;;;6.92;63.24;97591.72;8344622;28;20208;-79
2020/12/25 02:04:53;;;;;;;3.83;2.57;;;;;;;6.97;62.75;97599.31;8342507;28;20200;-79
2020/12/25 02:08:56;;;;;;;3.83;2.40;;;;;;;6.97;62.97;97597.56;8342928;28;20219;-79
2020/12/25 02:12:58;;;;;;;4.07;2.83;;;;;;;7.12;62.64;97593.59;8342818;28;20565;-79
2020/12/25 02:16:59;;;;;;;3.53;2.50;;;;;;;6.95;63.19;97604.50;8344279;28;20231;-79
2020/12/25 02:21:03;;;;;;;5.33;2.63;;;;;;;7.10;62.22;97607.41;8344775;28;20614;-79
2020/12/25 02:25:05;;;;;;;4.43;2.63;;;;;;;7.00;62.72;97609.47;8344575;28;20200;-80
2020/12/25 02:29:07;;;;;;;4.23;2.50;;;;;;;6.97;62.54;97619.91;8345433;28;20208;-80
2020/12/25 02:33:09;;;;;;;4.00;2.93;;;;;;;6.78;62.43;97617.94;8347663;28;20200;-80
2020/12/25 02:37:11;;;;;;;4.60;2.80;;;;;;;6.49;63.05;97618.94;8348827;28;20227;-80
2020/12/25 02:41:13;;;;;;;4.17;3.00;;;;;;;6.54;62.60;97618.78;8341684;28;20212;-80
2020/12/25 02:45:14;;;;;;;4.47;2.87;;;;;;;6.63;63.09;97626.19;8338800;28;20209;-80
2020/12/25 02:49:16;;;;;;;2.93;2.63;;;;;;;6.68;62.55;97637.16;8337135;28;20204;-79
2020/12/25 02:53:19;;;;;;;2.87;2.60;;;;;;;6.69;62.28;97649.16;8335409;28;20196;-79
2020/12/25 02:57:21;;;;;;;3.93;2.43;;;;;;;6.74;62.76;97649.84;8335821;28;20694;-78
2020/12/25 03:01:22;;;;;;;4.50;2.80;;;;;;;6.78;62.54;97660.88;8335909;28;20201;-79
2020/12/25 03:05:24;;;;;;;5.53;2.93;;;;;;;6.68;62.63;97664.63;8335836;28;20200;-79
2020/12/25 03:09:27;;;;;;;4.30;3.03;;;;;;;6.66;62.32;97664.69;8334643;28;20211;-78
2020/12/25 03:13:28;;;;;;;3.90;2.53;;;;;;;6.45;62.82;97664.53;8334782;28;20228;-78
2020/12/25 03:17:30;;;;;;;3.70;2.63;;;;;;;6.67;62.37;97661.22;8334479;28;20228;-79
2020/12/25 03:21:32;;;;;;;3.63;2.57;;;;;;;6.82;62.20;97662.44;8336566;28;20215;-79
2020/12/25 03:25:34;;;;;;;3.80;2.90;;;;;;;6.80;62.00;97674.53;8337981;28;20200;-79
2020/12/25 03:29:36;;;;;;;3.83;2.80;;;;;;;6.77;62.56;97677.19;8337393;28;20208;-79
2020/12/25 03:33:37;;;;;;;2.73;2.27;;;;;;;6.74;62.58;97683.28;8338623;28;20201;-80
2020/12/25 03:37:39;;;;;;;3.53;2.63;;;;;;;6.69;62.38;97685.19;8338207;28;20579;-80
2020/12/25 03:41:42;;;;;;;3.53;2.20;;;;;;;6.65;62.58;97686.16;8339235;28;20547;-79
2020/12/25 03:45:44;;;;;;;3.17;2.40;;;;;;;6.71;62.58;97692.84;8339272;28;20231;-78
2020/12/25 03:49:46;;;;;;;4.20;2.70;;;;;;;6.54;62.75;97694.22;8332116;28;20204;-78
2020/12/25 03:53:47;;;;;;;2.73;2.20;;;;;;;6.71;63.03;97690.28;8335536;28;20560;-79
2020/12/25 03:57:50;;;;;;;4.77;2.77;;;;;;;6.72;62.90;97697.09;8337902;28;20224;-79
2020/12/25 04:01:52;;;;;;;3.50;2.60;;;;;;;6.67;62.90;97689.53;8338872;28;20196;-78
2020/12/25 04:05:56;;;;;;;3.13;2.30;;;;;;;6.78;62.88;97696.91;8345011;28;20227;-79
2020/12/25 04:09:58;;;;;;;4.30;2.70;;;;;;;6.74;62.78;97693.59;8345219;28;20600;-79
2020/12/25 04:14:00;;;;;;;6.47;2.80;;;;;;;6.85;62.99;97708.66;8345143;28;20236;-79
2020/12/25 04:18:02;;;;;;;3.17;2.67;;;;;;;6.70;63.14;97710.03;8343543;28;20675;-78
2020/12/25 04:22:04;;;;;;;5.63;2.73;;;;;;;6.78;63.29;97710.63;8343921;28;20200;-79
2020/12/25 04:26:09;;;;;;;3.10;2.40;;;;;;;6.87;63.82;97711.19;8343234;28;20216;-79
2020/12/25 04:30:11;;;;;;;3.60;2.60;;;;;;;6.91;63.35;97712.75;8343667;28;20597;-79
2020/12/25 04:34:13;;;;;;;4.10;2.73;;;;;;;6.72;63.84;97717.69;8344454;28;20200;-79
2020/12/25 04:38:15;;;;;;;3.63;2.37;;;;;;;6.69;63.83;97723.78;8345284;28;20228;-80
2020/12/25 04:42:17;;;;;;;5.40;2.50;;;;;;;6.81;63.61;97733.66;8345618;28;20657;-79
2020/12/25 04:46:21;;;;;;;5.13;2.47;;;;;;;6.43;64.02;97735.72;8345986;28;20208;-79
2020/12/25 04:50:23;;;;;;;3.30;2.40;;;;;;;6.53;64.15;97731.16;8342529;28;20502;-80
2020/12/25 04:54:25;;;;;;;3.83;2.60;;;;;;;6.61;63.82;97729.16;8345934;28;20661;-79
2020/12/25 04:58:26;;;;;;;5.00;2.70;;;;;;;6.63;63.98;97734.28;8345815;28;20699;-79
2020/12/25 05:02:29;;;;;;;3.43;2.37;;;;;;;6.52;64.14;97739.75;8341953;28;20211;-79
2020/12/25 05:06:31;;;;;;;3.77;2.50;;;;;;;6.57;63.93;97732.75;8341707;28;20204;-78
2020/12/25 05:10:33;;;;;;;3.50;2.20;;;;;;;6.63;63.50;97740.25;8342260;28;20205;-79
2020/12/25 05:14:34;;;;;;;2.53;2.17;;;;;;;6.54;63.75;97755.16;8340922;28;20239;-79
2020/12/25 05:18:40;;;;;;;3.90;2.33;;;;;;;6.64;63.88;97751.38;8341334;28;20227;-79
2020/12/25 05:22:43;;;;;;;3.70;2.60;;;;;;;6.59;63.37;97763.56;8341071;28;20189;-79
2020/12/25 05:26:51;;;;;;;3.50;2.20;;;;;;;6.70;63.18;97761.50;8341095;28;20205;-79
2020/12/25 05:30:53;;;;;;;2.70;2.27;;;;;;;6.65;63.30;97769.34;8341003;28;20205;-79
2020/12/25 05:34:56;;;;;;;2.40;2.20;;;;;;;6.73;62.89;97763.97;8341404;28;20211;-79
2020/12/25 05:38:58;;;;;;;4.40;2.30;;;;;;;6.69;63.21;97774.41;8340374;28;20676;-79
2020/12/25 05:43:04;;;;;;;2.93;2.50;;;;;;;6.81;62.96;97777.41;8341079;28;20663;-79
2020/12/25 05:47:07;;;;;;;5.50;2.90;;;;;;;6.63;62.77;97780.59;8341424;28;20200;-80
2020/12/25 05:51:10;;;;;;;3.13;2.43;;;;;;;6.61;63.28;97784.94;8340182;28;20200;-80
2020/12/25 05:55:13;;;;;;;3.87;2.97;;;;;;;6.50;63.68;97785.28;8340214;28;20550;-80
2020/12/25 05:59:16;;;;;;;4.77;3.20;;;;;;;6.56;63.17;97802.25;8340926;28;20231;-80
2020/12/25 06:03:17;;;;;;;4.20;2.60;;;;;;;6.54;63.41;97799.72;8340877;28;20205;-79
2020/12/25 06:07:22;;;;;;;5.30;2.90;;;;;;;6.70;62.97;97807.81;8339900;28;20204;-79
2020/12/25 06:11:28;;;;;;;3.23;2.60;;;;;;;6.68;63.14;97808.75;8340302;28;20220;-79
2020/12/25 06:15:32;;;;;;;3.17;2.33;;;;;;;6.57;63.37;97806.53;8340285;28;20196;-79
2020/12/25 06:19:40;;;;;;;3.47;2.77;;;;;;;6.65;63.16;97818.25;8338844;28;20676;-79
2020/12/25 06:23:43;;;;;;;3.73;2.77;;;;;;;6.74;63.44;97827.44;8341242;28;20271;-79
2020/12/25 06:27:50;;;;;;;4.00;3.20;;;;;;;6.69;63.32;97831.03;8340552;28;20655;-79
2020/12/25 06:31:54;;;;;;;3.53;3.00;;;;;;;6.68;63.40;97827.59;8340279;28;20195;-79
2020/12/25 06:35:58;;;;;;;3.33;2.90;;;;;;;6.70;62.80;97840.41;8340046;28;20211;-79
2020/12/25 06:40:06;;;;;;;3.97;3.03;;;;;;;6.68;63.17;97844.78;8339992;28;20228;-79
2020/12/25 06:44:08;;;;;;;4.33;3.07;;;;;;;6.63;63.71;97855.22;8339838;28;20189;-79
2020/12/25 06:48:14;;;;;;;5.87;3.07;;;;;;;6.70;63.55;97859.28;8340848;28;20211;-79
2020/12/25 06:52:25;;;;;;;4.33;3.20;;;;;;;6.52;63.71;97860.69;8340973;28;20299;-79
2020/12/25 06:56:27;;;;;;;4.67;3.00;;;;;;;6.63;63.46;97868.09;8341856;28;20193;-80
2020/12/25 07:00:29;;;;;;;4.37;3.30;;;;;;;6.57;64.02;97869.09;8341534;28;20660;-79
2020/12/25 07:04:32;;;;;;;6.27;3.33;;;;;;;6.64;63.83;97880.03;8342484;28;20205;-79
2020/12/25 07:08:36;;;;;;;4.50;3.33;;;;;;;6.66;63.61;97888.56;8341291;28;20215;-79
2020/12/25 07:12:39;;;;;;;3.90;3.53;;;;;;;6.67;63.61;97892.84;8343347;28;20247;-79
2020/12/25 07:16:41;;;;;;;4.43;3.63;;;;;;;6.52;63.96;97901.00;8340728;28;20239;-79
2020/12/25 07:20:43;;;;;;;6.50;3.57;;;;;;;6.62;63.96;97907.56;8334819;28;20698;-79
2020/12/25 07:24:45;;;;;;;4.10;3.50;;;;;;;6.72;63.76;97915.84;8336942;28;20542;-79
2020/12/25 07:28:48;;;;;;;4.83;3.60;;;;;;;6.59;63.87;97915.38;8337293;28;20212;-79
2020/12/25 07:32:50;;;;;;;5.73;3.80;;;;;;;6.59;64.39;97920.53;8338564;28;20211;-80
2020/12/25 07:36:53;;;;;;;4.17;3.80;;;;;;;6.63;64.20;97919.53;8338254;28;20211;-79
2020/12/25 07:40:55;;;;;;;3.80;3.50;;;;;;;6.63;64.04;97927.28;8340586;28;20655;-78
2020/12/25 07:44:59;;;;;;;4.20;3.80;;;;;;;6.67;64.41;97926.28;8340645;28;20204;-78
2020/12/25 07:49:01;;;;;;;4.30;3.90;;;;;;;6.46;64.17;97918.28;8339183;28;20204;-80
2020/12/25 07:53:08;;;;;;;4.43;3.73;;;;;;;6.66;64.16;97945.16;8342009;28;20223;-79
2020/12/25 07:57:10;;;;;;;4.47;3.87;;;;;;;6.61;64.20;97950.47;8340102;28;20216;-78
2020/12/25 08:01:13;;;;;;;4.67;4.27;;;;;;;6.35;64.60;97953.75;8338607;28;20670;-77
2020/12/25 08:05:15;;;;;;;4.57;3.70;;;;;;;6.45;65.01;97965.50;8338006;28;20200;-78
2020/12/25 08:09:17;;;;;;;5.33;4.03;;;;;;;6.62;64.40;97970.16;8337914;28;20212;-78
2020/12/25 08:13:19;;;;;;;4.13;3.83;;;;;;;6.58;64.33;97973.69;8338137;28;20244;-77
2020/12/25 08:17:22;;;;;;;5.03;3.93;;;;;;;6.45;64.93;97977.50;8338384;28;20654;-78
2020/12/25 08:21:30;;;;;;;4.50;4.10;;;;;;;6.58;64.51;97988.31;8338834;28;20204;-77
2020/12/25 08:25:33;;;;;;;8.50;4.83;;;;;;;6.72;64.88;97990.47;8338286;28;20192;-78
2020/12/25 08:29:37;;;;;;;4.53;3.93;;;;;;;6.76;64.88;97989.50;8338272;28;20551;-78
2020/12/25 08:33:39;;;;;;;4.97;4.00;;;;;;;6.78;64.02;97993.75;8338710;28;20553;-78
2020/12/25 08:37:52;;;;;;;5.63;3.87;;;;;;;6.69;64.64;98004.28;8338647;28;20319;-78
2020/12/25 08:41:54;;;;;;;6.60;4.77;;;;;;;6.79;64.71;98010.00;8337734;28;20205;-78
2020/12/25 08:45:58;;;;;;;6.30;4.83;;;;;;;6.77;65.09;98007.47;8337907;28;20208;-78
2020/12/25 08:50:01;;;;;;;5.07;4.53;;;;;;;6.71;64.28;98019.69;8336596;28;20211;-78
2020/12/25 08:54:03;;;;;;;4.33;3.70;;;;;;;6.69;65.23;98021.47;8337783;28;20208;-78
2020/12/25 08:58:05;;;;;;;3.90;3.60;;;;;;;6.89;64.49;98026.03;8336602;28;20235;-78
2020/12/25 09:02:06;;;;;;;4.90;3.63;;;;;;;6.90;64.28;98032.91;8337563;28;20536;-78
2020/12/25 09:06:10;;;;;;;3.80;3.40;;;;;;;6.88;64.32;98029.53;8336392;28;20560;-79
2020/12/25 09:10:11;;;;;;;4.50;3.70;;;;;;;6.87;64.56;98040.69;8337233;28;20231;-78
2020/12/25 09:14:13;;;;;;;3.70;3.40;;;;;;;7.01;64.27;98051.44;8337083;28;20236;-79
2020/12/25 09:18:15;;;;;;;5.33;4.20;;;;;;;6.96;64.23;98064.44;8336387;28;20232;-78
2020/12/25 09:22:17;;;;;;;6.50;4.90;;;;;;;6.96;64.17;98059.28;8336286;28;20204;-78
2020/12/25 09:26:19;;;;;;;4.47;4.07;;;;;;;6.91;63.91;98074.03;8336315;28;20564;-79
2020/12/25 09:30:21;;;;;;;3.70;3.40;;;;;;;6.64;64.06;98073.03;8337254;28;20204;-79
2020/12/25 09:34:22;;;;;;;3.30;3.00;;;;;;;6.84;64.87;98081.09;8335365;28;20204;-78
2020/12/25 09:38:25;;;;;;;4.00;3.57;;;;;;;6.74;64.66;98078.78;8336866;28;20231;-78
2020/12/25 09:42:27;;;;;;;3.27;2.93;;;;;;;6.79;64.45;98087.25;8336238;28;20212;-78
2020/12/25 09:46:28;;;;;;;3.20;2.90;;;;;;;6.61;64.43;98092.00;8338264;28;20211;-79
2020/12/25 09:50:30;;;;;;;2.60;2.40;;;;;;;6.57;64.09;98098.13;8339726;28;20204;-79
2020/12/25 09:54:33;;;;;;;3.67;2.73;;;;;;;6.39;64.72;98088.28;8341868;28;20656;-79
2020/12/25 09:58:35;;;;;;;3.30;2.87;;;;;;;6.64;64.40;98094.50;8342441;28;20220;-78
2020/12/25 10:02:37;;;;;;;2.97;2.30;;;;;;;6.43;64.64;98095.03;8335278;28;20217;-81
2020/12/25 10:06:39;;;;;;;2.30;2.10;;;;;;;6.76;64.13;98101.03;8341795;28;20192;-80
2020/12/25 10:10:43;;;;;;;2.97;2.33;;;;;;;6.68;64.68;98104.69;8344527;28;20207;-80
2020/12/25 10:14:44;;;;;;;3.13;2.83;;;;;;;6.76;64.57;98101.03;8345730;28;20246;-79
2020/12/25 10:18:46;;;;;;;2.40;2.20;;;;;;;6.66;64.13;98104.72;8343400;28;20263;-79
2020/12/25 10:22:48;;;;;;;3.20;2.40;;;;;;;6.73;63.96;98108.00;8343377;28;20200;-81
2020/12/25 10:26:51;;;;;;;3.17;2.87;;;;;;;6.40;64.16;98103.69;8345391;28;20204;-80
2020/12/25 10:30:53;;;;;;;3.90;2.40;;;;;;;6.44;64.01;98092.44;8342409;28;20200;-78
2020/12/25 10:34:55;;;;;;;2.90;2.37;;;;;;;6.61;63.34;98097.16;8343552;28;20192;-80
2020/12/25 10:38:56;;;;;;;3.40;2.40;;;;;;;6.53;63.77;98099.09;8343850;28;20227;-79
2020/12/25 10:42:59;;;;;;;3.70;2.73;;;;;;;6.60;63.77;98090.28;8344285;28;20664;-81
2020/12/25 10:47:01;;;;;;;8.67;4.40;;;;;;;7.63;72.29;98114.88;8344147;28;20278;-81
2020/12/25 10:51:03;;;;;;;12.50;4.53;;;;;;;8.20;74.24;98108.78;8342916;28;20204;-81
2020/12/25 10:55:04;;;;;;;10.43;4.67;;;;;;;8.72;78.91;98106.25;8343740;28;20197;-81
2020/12/25 10:59:07;;;;;;;10.43;3.80;;;;;;;8.75;68.20;98106.13;8343464;28;20221;-82
2020/12/25 11:03:09;;;;;;;10.63;5.93;;;;;;;8.64;66.22;98116.00;8344790;28;20211;-82
2020/12/25 11:07:11;;;;;;;5.80;4.90;;;;;;;7.66;60.80;98124.28;8349351;28;20519;-82
2020/12/25 11:11:22;;;;;;;12.83;4.20;;;;;;;10.01;63.32;98115.28;8354786;28;20227;-80
2020/12/25 11:15:25;;;;;;;5.13;3.23;;;;;;;8.74;57.14;98124.28;8347175;28;20200;-80
2020/12/25 11:19:26;;;;;;;4.47;3.30;;;;;;;7.91;59.32;98125.22;8344711;28;20235;-79
2020/12/25 11:23:28;;;;;;;3.13;2.63;;;;;;;7.76;59.00;98130.84;8344970;28;20570;-79
2020/12/25 11:27:32;;;;;;;5.40;3.42;;;;;;;8.49;57.05;98129.41;8343669;28;20423;-82
2020/12/25 11:31:35;;;;;;;3.92;3.10;;;;;;;7.94;57.89;98132.84;8345389;28;20438;-80
2020/12/25 11:35:38;;;;;;;7.87;5.47;;;;;;;7.97;58.16;98127.59;8345694;28;20457;-79
2020/12/25 11:39:40;;;;;;;5.63;2.97;;;;;;;7.64;60.05;98125.16;8349257;28;20243;-80
2020/12/25 11:43:42;;;;;;;3.97;2.80;;;;;;;7.31;60.66;98116.69;8351647;28;20200;-79
2020/12/25 11:47:45;;;;;;;8.87;5.20;;;;;;;7.28;60.91;98126.25;8353337;28;20208;-81
2020/12/25 11:51:49;;;;;;;6.27;4.10;;;;;;;6.94;61.97;98129.75;8356446;28;20189;-81
2020/12/25 11:55:53;;;;;;;4.67;2.93;;;;;;;7.25;61.08;98127.16;8354564;28;20204;-82
2020/12/25 11:59:54;;;;;;;5.07;3.80;;;;;;;7.18;61.00;98129.06;8355227;28;20224;-81
2020/12/25 12:03:57;;;;;;;7.30;3.30;;;;;;;7.11;61.13;98129.28;8352172;28;20199;-81
2020/12/25 12:07:59;;;;;;;6.03;4.40;;;;;;;6.56;62.27;98121.31;8352554;28;20214;-81
2020/12/25 12:12:01;;;;;;;7.30;4.93;;;;;;;6.95;61.24;98140.00;8351634;28;20232;-81
2020/12/25 12:16:02;;;;;;;7.47;6.03;;;;;;;6.80;61.12;98132.69;8350464;28;20204;-81
2020/12/25 12:20:05;;;;;;;6.30;4.80;;;;;;;6.85;61.29;98136.84;8346928;28;20233;-80
2020/12/25 12:24:07;;;;;;;5.78;4.63;;;;;;;7.62;57.61;98132.09;8349518;28;20506;-81
2020/12/25 12:28:29;;;;;;;5.07;2.70;;;;;;;6.92;58.92;98136.69;8350567;28;20255;-80
2020/12/25 12:32:32;;;;;;;5.80;2.60;;;;;;;7.54;57.39;98141.78;8351832;28;20430;-80
2020/12/25 12:36:34;;;;;;;4.40;3.00;;;;;;;6.93;58.23;98146.94;8305486;28;20583;-80
2020/12/25 12:40:37;;;;;;;4.17;2.97;;;;;;;7.00;58.82;98148.44;8287516;28;20229;-80
2020/12/25 12:44:39;;;;;;;3.83;2.63;;;;;;;7.02;59.15;98149.25;8286812;28;20269;-81
2020/12/25 12:48:41;;;;;;;2.90;2.30;;;;;;;6.97;59.89;98147.69;8287551;28;20212;-80
2020/12/25 12:52:44;;;;;;;3.03;2.70;;;;;;;6.88;60.28;98153.94;8287478;28;20229;-81
2020/12/25 12:56:46;;;;;;;4.47;2.13;;;;;;;6.79;58.95;98144.72;8286555;28;20202;-80
2020/12/25 13:00:51;;;;;;;3.33;1.97;;;;;;;6.53;58.60;98136.81;8288102;28;20356;-82
2020/12/25 13:04:53;;;;;;;4.03;1.90;;;;;;;6.66;56.89;98143.34;8287756;28;20214;-82
2020/12/25 13:08:55;;;;;;;4.93;1.70;;;;;;;6.72;57.53;98152.63;8288579;28;20232;-82
2020/12/25 13:12:57;;;;;;;4.77;3.50;;;;;;;6.85;58.09;98152.28;8289012;28;20597;-81
2020/12/25 13:16:59;;;;;;;2.77;2.07;;;;;;;6.70;57.13;98150.13;8269318;28;20204;-81
2020/12/25 13:21:01;;;;;;;2.90;2.20;;;;;;;6.66;57.33;98153.63;8266422;28;20252;-80
2020/12/25 13:25:03;;;;;;;3.20;2.00;;;;;;;7.05;56.36;98148.31;8254543;28;20954;-81
2020/12/25 13:29:05;;;;;;;4.97;2.13;;;;;;;6.77;57.99;98155.94;8255342;28;20206;-81
2020/12/25 13:33:07;;;;;;;3.83;1.60;;;;;;;6.68;56.74;98148.44;8259531;28;20238;-81
2020/12/25 13:37:09;;;;;;;3.60;1.47;;;;;;;6.74;56.98;98146.56;8265639;28;20198;-82
2020/12/25 13:41:14;;;;;;;3.20;2.10;;;;;;;7.27;53.62;98148.56;8262641;28;20448;-81
2020/12/25 13:45:15;;;;;;;2.67;1.40;;;;;;;6.72;54.65;98153.50;8266554;28;20234;-81
2020/12/25 13:49:17;;;;;;;1.47;1.20;;;;;;;6.50;54.04;98154.91;8266545;28;20202;-81
2020/12/25 13:53:20;;;;;;;3.10;1.47;;;;;;;6.62;54.76;98170.03;8283478;28;20217;-81
2020/12/25 13:57:22;;;;;;;2.63;1.43;;;;;;;6.53;54.95;98175.41;8283884;28;20213;-80
2020/12/25 14:01:24;;;;;;;1.90;1.37;;;;;;;6.46;53.41;98174.72;8272029;28;20551;-81
2020/12/25 14:05:25;;;;;;;3.53;2.33;;;;;;;6.41;53.92;98179.97;8254180;28;20241;-81
2020/12/25 14:09:27;;;;;;;3.63;2.30;;;;;;;6.42;53.73;98188.56;8251728;28;20663;-80
2020/12/25 14:13:30;;;;;;;8.87;2.37;;;;;;;6.72;60.02;98204.09;8254227;28;20318;-80
2020/12/25 14:17:32;;;;;;;3.13;1.33;;;;;;;6.75;54.20;98211.75;8255256;28;20202;-81
2020/12/25 14:21:34;;;;;;;4.87;2.60;;;;;;;6.82;55.51;98214.13;8270125;28;20210;-80
2020/12/25 14:25:37;;;;;;;3.97;2.57;;;;;;;6.75;55.93;98209.19;8265767;28;20651;-81
2020/12/25 14:29:40;;;;;;;3.97;2.40;;;;;;;6.64;56.91;98230.03;8252132;28;20206;-81
2020/12/25 14:33:42;;;;;;;3.87;2.23;;;;;;;6.71;56.83;98231.56;8253670;28;20233;-81
2020/12/25 14:37:43;;;;;;;3.63;2.23;;;;;;;6.48;56.32;98231.31;8263892;28;20208;-81
2020/12/25 14:41:45;;;;;;;7.53;2.50;;;;;;;6.62;56.80;98229.22;8258155;28;20209;-81
2020/12/25 14:45:48;;;;;;;3.87;1.90;;;;;;;6.59;56.48;98231.91;8277067;28;20242;-81
2020/12/25 14:49:49;;;;;;;3.77;2.93;;;;;;;6.58;57.30;98241.31;8258731;28;20213;-81
2020/12/25 14:53:51;;;;;;;4.43;3.37;;;;;;;6.64;57.43;98241.19;8270517;28;20222;-81
2020/12/25 14:57:53;;;;;;;5.57;3.30;;;;;;;6.61;57.92;98243.84;8282066;28;20233;-81
2020/12/25 15:01:55;;;;;;;5.67;2.13;;;;;;;6.58;57.57;98237.91;8254595;28;20221;-81
2020/12/25 15:05:57;;;;;;;3.00;1.80;;;;;;;6.58;57.18;98245.63;8281478;28;20221;-81
2020/12/25 15:09:59;;;;;;;4.83;1.90;;;;;;;6.60;58.17;98257.56;8277195;28;20212;-81
2020/12/25 15:14:01;;;;;;;6.07;2.33;;;;;;;6.63;57.50;98262.66;8282942;28;20249;-81
2020/12/25 15:18:03;;;;;;;5.50;2.97;;;;;;;6.65;57.27;98271.19;8266452;28;20599;-80
2020/12/25 15:22:05;;;;;;;6.17;4.10;;;;;;;6.61;56.67;98281.59;8274611;28;20207;-81
2020/12/25 15:26:07;;;;;;;7.80;4.13;;;;;;;6.59;56.60;98284.19;8276946;28;20209;-82
2020/12/25 15:30:09;;;;;;;4.87;2.80;;;;;;;6.61;56.35;98294.47;8271688;28;20217;-81
2020/12/25 15:34:12;;;;;;;3.70;2.70;;;;;;;6.50;56.42;98299.00;8267130;28;20214;-80
2020/12/25 15:38:13;;;;;;;5.37;2.40;;;;;;;6.39;56.38;98300.06;8265129;28;20230;-81
2020/12/25 15:42:15;;;;;;;5.23;3.57;;;;;;;6.35;56.00;98308.75;8254510;28;20222;-79
2020/12/25 15:46:17;;;;;;;5.47;3.43;;;;;;;6.34;55.97;98301.91;8271588;28;20201;-79
2020/12/25 15:50:20;;;;;;;4.23;3.37;;;;;;;6.29;55.43;98310.63;8254973;28;20221;-79
2020/12/25 15:54:22;;;;;;;7.47;4.03;;;;;;;6.32;56.17;98310.53;8253267;28;20213;-80
2020/12/25 15:58:24;;;;;;;8.33;4.80;;;;;;;6.23;56.76;98321.88;8256393;28;20280;-79
2020/12/25 16:02:26;;;;;;;6.47;4.20;;;;;;;6.18;57.27;98316.81;8273302;28;20206;-81
2020/12/25 16:06:32;;;;;;;5.17;4.23;;;;;;;6.09;57.62;98319.56;8277462;28;20202;-81
2020/12/25 16:10:36;;;;;;;4.83;3.83;;;;;;;5.98;57.29;98321.53;8270434;28;20191;-81
2020/12/25 16:14:38;;;;;;;5.57;4.30;;;;;;;5.93;57.24;98321.59;8275188;28;20269;-81
2020/12/25 16:18:39;;;;;;;7.10;4.00;;;;;;;6.13;56.74;98338.34;8253566;28;20227;-78
2020/12/25 16:22:42;;;;;;;6.40;2.93;;;;;;;6.12;56.86;98339.25;8247231;28;20306;-80
2020/12/25 16:26:46;;;;;;;4.77;2.80;;;;;;;5.97;56.38;98337.84;8246753;28;20547;-79
2020/12/25 16:30:48;;;;;;;3.83;3.30;;;;;;;6.03;56.56;98345.41;8246418;28;20211;-79
2020/12/25 16:34:50;;;;;;;15.43;12.33;;;;;;;6.00;57.07;98348.06;8247119;28;20210;-79
2020/12/25 16:38:52;;;;;;;23.30;16.77;;;;;;;5.97;56.87;98358.41;8261035;28;20226;-80
2020/12/25 16:42:56;;;;;;;8.73;7.03;;;;;;;5.97;57.68;98353.25;8259105;28;20202;-81
2020/12/25 16:46:59;;;;;;;8.57;6.60;;;;;;;5.97;56.97;98361.81;8258147;28;20226;-79
2020/12/25 16:51:00;;;;;;;8.03;5.00;;;;;;;5.93;57.83;98369.59;8252145;28;20210;-79
2020/12/25 16:55:04;;;;;;;7.80;6.07;;;;;;;5.98;58.04;98373.81;8273580;28;20237;-80
2020/12/25 16:59:05;;;;;;;7.07;6.23;;;;;;;5.95;57.37;98380.69;8287754;28;20230;-80
2020/12/25 17:03:07;;;;;;;8.93;7.53;;;;;;;6.01;57.60;98378.03;8292782;28;20209;-80
2020/12/25 17:07:09;;;;;;;11.53;9.27;;;;;;;5.99;57.50;98384.94;8299666;28;20202;-80
2020/12/25 17:11:11;;;;;;;13.03;10.97;;;;;;;5.98;57.79;98381.50;8285546;28;20225;-79
2020/12/25 17:15:13;;;;;;;29.70;26.17;;;;;;;6.00;57.38;98376.34;8276946;28;20426;-78
2020/12/25 17:19:16;;;;;;;19.70;16.03;;;;;;;6.05;57.37;98384.81;8274439;28;20646;-79
2020/12/25 17:23:17;;;;;;;72.47;53.17;;;;;;;6.03;57.40;98383.97;8282497;28;20541;-79
2020/12/25 17:27:22;;;;;;;91.17;60.90;;;;;;;5.98;57.63;98386.66;8282736;28;20650;-79
2020/12/25 17:31:24;;;;;;;21.80;17.77;;;;;;;5.91;56.40;98385.03;8282789;28;20201;-79
2020/12/25 17:35:25;;;;;;;9.23;7.57;;;;;;;5.98;55.86;98384.09;8279893;28;20654;-79
2020/12/25 17:39:29;;;;;;;16.80;14.13;;;;;;;5.97;56.39;98394.41;8280092;28;20229;-78
2020/12/25 17:43:38;;;;;;;39.53;35.40;;;;;;;5.85;56.01;98395.44;8276256;28;20555;-78
2020/12/25 17:47:40;;;;;;;13.50;12.07;;;;;;;5.96;56.30;98403.84;8280427;28;20288;-79
2020/12/25 17:51:42;;;;;;;9.10;8.20;;;;;;;5.94;55.93;98400.41;8261259;28;20646;-78
2020/12/25 17:55:46;;;;;;;13.13;10.70;;;;;;;5.71;56.47;98398.25;8262699;28;20285;-79
2020/12/25 17:59:50;;;;;;;11.97;10.20;;;;;;;5.92;56.12;98412.47;8252831;28;20568;-79
2020/12/25 18:03:51;;;;;;;12.90;10.30;;;;;;;5.83;55.87;98410.88;8258204;28;20202;-80
2020/12/25 18:07:54;;;;;;;10.07;8.40;;;;;;;5.97;56.38;98417.53;8258033;28;20230;-82
2020/12/25 18:11:57;;;;;;;11.30;9.80;;;;;;;5.97;55.87;98420.09;8260080;28;20250;-80
2020/12/25 18:16:00;;;;;;;12.60;10.10;;;;;;;5.80;56.37;98422.94;8254803;28;20206;-79
2020/12/25 18:20:02;;;;;;;13.10;11.10;;;;;;;5.73;56.35;98421.34;8253637;28;20230;-80
2020/12/25 18:24:07;;;;;;;14.17;11.33;;;;;;;5.76;55.97;98435.00;8252489;28;20202;-79
2020/12/25 18:28:09;;;;;;;12.33;10.43;;;;;;;5.68;56.03;98434.28;8250429;28;20207;-80
2020/12/25 18:32:12;;;;;;;9.37;8.37;;;;;;;5.70;55.72;98458.25;8252053;28;20684;-80
2020/12/25 18:36:13;;;;;;;13.07;11.70;;;;;;;5.77;55.52;98452.13;8254767;28;20199;-80
2020/12/25 18:40:15;;;;;;;15.33;12.27;;;;;;;5.68;55.40;98455.69;8262466;28;20225;-79
2020/12/25 18:44:17;;;;;;;10.83;9.27;;;;;;;5.52;55.73;98440.56;8254448;28;20203;-79
2020/12/25 18:48:20;;;;;;;7.20;5.40;;;;;;;5.45;55.33;98440.66;8253045;28;20214;-79
2020/12/25 18:52:25;;;;;;;6.83;3.90;;;;;;;5.45;54.79;98452.66;8254268;28;20642;-79
2020/12/25 18:56:27;;;;;;;6.00;4.63;;;;;;;5.47;55.02;98444.03;8253379;28;20210;-79
2020/12/25 19:00:28;;;;;;;7.07;6.37;;;;;;;5.43;54.87;98444.97;8252413;28;20233;-80
2020/12/25 19:04:31;;;;;;;4.90;4.43;;;;;;;5.37;54.55;98452.78;8253733;28;20206;-80
2020/12/25 19:08:33;;;;;;;6.20;5.30;;;;;;;5.38;54.96;98457.03;8254935;28;20206;-81
2020/12/25 19:12:35;;;;;;;5.30;4.80;;;;;;;5.32;55.49;98453.72;8254981;28;20238;-80
2020/12/25 19:16:37;;;;;;;8.83;5.13;;;;;;;5.28;55.28;98455.47;8253001;28;20203;-81